sensor_id;sensor_type;location;lat;lon;timestamp;P1;durP1;ratioP1;P2;durP2;ratioP2
18455;SDS011;9357;49.900;8.208;2022-12-29T00:00:26;2.97;;;2.17;;
18455;SDS011;9357;49.900;8.208;2022-12-29T00:01:58;2.83;;;2.33;;
18455;SDS011;9357;49.900;8.208;2022-12-29T00:03:30;5.43;;;2.50;;
18455;SDS011;9357;49.900;8.208;2022-12-29T00:05:04;5.93;;;2.27;;
18455;SDS011;9357;49.900;8.208;2022-12-29T00:06:38;3.30;;;2.20;;
18455;SDS011;9357;49.900;8.208;2022-12-29T00:08:10;2.57;;;2.37;;
18455;SDS011;9357;49.900;8.208;2022-12-29T00:09:43;4.13;;;2.27;;
18455;SDS011;9357;49.900;8.208;2022-12-29T00:11:16;3.27;;;2.57;;
18455;SDS011;9357;49.900;8.208;2022-12-29T00:12:49;3.03;;;2.17;;
18455;SDS011;9357;49.900;8.208;2022-12-29T00:14:41;2.67;;;2.30;;
18455;SDS011;9357;49.900;8.208;2022-12-29T00:16:32;2.20;;;2.00;;
18455;SDS011;9357;49.900;8.208;2022-12-29T00:18:06;3.00;;;2.10;;
18455;SDS011;9357;49.900;8.208;2022-12-29T00:19:39;2.77;;;2.30;;
18455;SDS011;9357;49.900;8.208;2022-12-29T00:21:30;5.20;;;2.53;;
18455;SDS011;9357;49.900;8.208;2022-12-29T00:23:29;2.63;;;2.20;;
18455;SDS011;9357;49.900;8.208;2022-12-29T00:25:19;2.70;;;2.30;;
18455;SDS011;9357;49.900;8.208;2022-12-29T00:27:10;2.30;;;2.10;;
18455;SDS011;9357;49.900;8.208;2022-12-29T00:29:03;3.03;;;2.10;;
18455;SDS011;9357;49.900;8.208;2022-12-29T00:30:55;2.43;;;2.07;;
18455;SDS011;9357;49.900;8.208;2022-12-29T00:32:48;2.23;;;2.03;;
18455;SDS011;9357;49.900;8.208;2022-12-29T00:34:38;3.27;;;2.00;;
18455;SDS011;9357;49.900;8.208;2022-12-29T00:36:30;3.33;;;2.10;;
18455;SDS011;9357;49.900;8.208;2022-12-29T00:38:06;2.80;;;2.30;;
18455;SDS011;9357;49.900;8.208;2022-12-29T00:39:58;2.37;;;1.90;;
18455;SDS011;9357;49.900;8.208;2022-12-29T00:41:49;4.30;;;1.97;;
18455;SDS011;9357;49.900;8.208;2022-12-29T00:43:39;3.27;;;2.30;;
18455;SDS011;9357;49.900;8.208;2022-12-29T00:45:29;2.40;;;2.20;;
18455;SDS011;9357;49.900;8.208;2022-12-29T00:47:03;2.73;;;2.00;;
18455;SDS011;9357;49.900;8.208;2022-12-29T00:48:36;4.30;;;2.20;;
18455;SDS011;9357;49.900;8.208;2022-12-29T00:50:26;2.93;;;2.03;;
18455;SDS011;9357;49.900;8.208;2022-12-29T00:51:59;2.40;;;2.20;;
18455;SDS011;9357;49.900;8.208;2022-12-29T00:53:33;2.60;;;2.00;;
18455;SDS011;9357;49.900;8.208;2022-12-29T00:55:06;4.33;;;2.10;;
18455;SDS011;9357;49.900;8.208;2022-12-29T00:56:39;2.67;;;2.07;;
18455;SDS011;9357;49.900;8.208;2022-12-29T00:58:11;2.90;;;1.90;;
18455;SDS011;9357;49.900;8.208;2022-12-29T00:59:44;3.23;;;1.80;;
18455;SDS011;9357;49.900;8.208;2022-12-29T01:01:16;2.27;;;1.90;;
18455;SDS011;9357;49.900;8.208;2022-12-29T01:02:50;2.43;;;2.23;;
18455;SDS011;9357;49.900;8.208;2022-12-29T01:04:24;3.40;;;2.10;;
18455;SDS011;9357;49.900;8.208;2022-12-29T01:05:59;2.27;;;2.00;;
18455;SDS011;9357;49.900;8.208;2022-12-29T01:07:31;2.20;;;1.80;;
18455;SDS011;9357;49.900;8.208;2022-12-29T01:09:04;2.37;;;2.17;;
18455;SDS011;9357;49.900;8.208;2022-12-29T01:10:58;2.00;;;1.80;;
18455;SDS011;9357;49.900;8.208;2022-12-29T01:12:32;2.10;;;1.90;;
18455;SDS011;9357;49.900;8.208;2022-12-29T01:14:15;2.27;;;2.07;;
18455;SDS011;9357;49.900;8.208;2022-12-29T01:15:49;2.33;;;1.90;;
18455;SDS011;9357;49.900;8.208;2022-12-29T01:17:22;3.73;;;2.00;;
18455;SDS011;9357;49.900;8.208;2022-12-29T01:18:56;2.00;;;1.90;;
18455;SDS011;9357;49.900;8.208;2022-12-29T01:20:28;2.07;;;1.80;;
18455;SDS011;9357;49.900;8.208;2022-12-29T01:22:00;2.83;;;2.10;;
18455;SDS011;9357;49.900;8.208;2022-12-29T01:23:32;3.07;;;2.13;;
18455;SDS011;9357;49.900;8.208;2022-12-29T01:25:05;2.20;;;1.97;;
18455;SDS011;9357;49.900;8.208;2022-12-29T01:26:39;2.70;;;1.90;;
18455;SDS011;9357;49.900;8.208;2022-12-29T01:28:10;2.97;;;2.03;;
18455;SDS011;9357;49.900;8.208;2022-12-29T01:29:44;2.27;;;1.87;;
18455;SDS011;9357;49.900;8.208;2022-12-29T01:31:16;2.50;;;1.90;;
18455;SDS011;9357;49.900;8.208;2022-12-29T01:32:49;2.00;;;1.80;;
18455;SDS011;9357;49.900;8.208;2022-12-29T01:34:23;2.30;;;1.97;;
18455;SDS011;9357;49.900;8.208;2022-12-29T01:35:59;2.50;;;1.80;;
18455;SDS011;9357;49.900;8.208;2022-12-29T01:37:31;3.17;;;2.13;;
18455;SDS011;9357;49.900;8.208;2022-12-29T01:39:04;1.83;;;1.60;;
18455;SDS011;9357;49.900;8.208;2022-12-29T01:40:42;3.13;;;1.60;;
18455;SDS011;9357;49.900;8.208;2022-12-29T01:42:17;3.03;;;1.80;;
18455;SDS011;9357;49.900;8.208;2022-12-29T01:43:51;2.03;;;1.83;;
18455;SDS011;9357;49.900;8.208;2022-12-29T01:45:24;3.93;;;1.90;;
18455;SDS011;9357;49.900;8.208;2022-12-29T01:46:57;3.03;;;1.77;;
18455;SDS011;9357;49.900;8.208;2022-12-29T01:48:29;2.97;;;1.70;;
18455;SDS011;9357;49.900;8.208;2022-12-29T01:50:05;2.63;;;1.80;;
18455;SDS011;9357;49.900;8.208;2022-12-29T01:51:42;2.90;;;1.60;;
18455;SDS011;9357;49.900;8.208;2022-12-29T01:53:18;2.17;;;1.80;;
18455;SDS011;9357;49.900;8.208;2022-12-29T01:54:55;2.67;;;1.60;;
18455;SDS011;9357;49.900;8.208;2022-12-29T01:56:29;4.23;;;1.83;;
18455;SDS011;9357;49.900;8.208;2022-12-29T01:58:03;2.10;;;1.40;;
18455;SDS011;9357;49.900;8.208;2022-12-29T01:59:38;3.57;;;1.80;;
18455;SDS011;9357;49.900;8.208;2022-12-29T02:01:13;2.10;;;1.60;;
18455;SDS011;9357;49.900;8.208;2022-12-29T02:02:49;2.20;;;1.60;;
18455;SDS011;9357;49.900;8.208;2022-12-29T02:04:24;2.10;;;1.60;;
18455;SDS011;9357;49.900;8.208;2022-12-29T02:06:01;2.93;;;1.60;;
18455;SDS011;9357;49.900;8.208;2022-12-29T02:07:38;1.73;;;1.63;;
18455;SDS011;9357;49.900;8.208;2022-12-29T02:09:11;3.08;;;1.42;;
18455;SDS011;9357;49.900;8.208;2022-12-29T02:10:44;2.23;;;1.43;;
18455;SDS011;9357;49.900;8.208;2022-12-29T02:12:17;2.30;;;1.60;;
18455;SDS011;9357;49.900;8.208;2022-12-29T02:13:52;2.80;;;1.50;;
18455;SDS011;9357;49.900;8.208;2022-12-29T02:15:27;3.07;;;1.33;;
18455;SDS011;9357;49.900;8.208;2022-12-29T02:17:08;2.47;;;1.27;;
18455;SDS011;9357;49.900;8.208;2022-12-29T02:18:50;2.00;;;1.70;;
18455;SDS011;9357;49.900;8.208;2022-12-29T02:20:37;2.37;;;1.50;;
18455;SDS011;9357;49.900;8.208;2022-12-29T02:22:25;2.57;;;1.77;;
18455;SDS011;9357;49.900;8.208;2022-12-29T02:26:23;1.50;;;1.40;;
18455;SDS011;9357;49.900;8.208;2022-12-29T02:28:24;1.73;;;1.50;;
18455;SDS011;9357;49.900;8.208;2022-12-29T02:30:44;1.33;;;1.23;;
18455;SDS011;9357;49.900;8.208;2022-12-29T02:32:25;1.10;;;1.10;;
18455;SDS011;9357;49.900;8.208;2022-12-29T02:34:08;3.73;;;1.50;;
18455;SDS011;9357;49.900;8.208;2022-12-29T02:35:52;2.57;;;1.20;;
18455;SDS011;9357;49.900;8.208;2022-12-29T02:37:30;3.00;;;1.87;;
18455;SDS011;9357;49.900;8.208;2022-12-29T02:39:13;1.40;;;1.30;;
18455;SDS011;9357;49.900;8.208;2022-12-29T02:40:54;2.20;;;1.20;;
18455;SDS011;9357;49.900;8.208;2022-12-29T02:42:35;1.80;;;1.40;;
18455;SDS011;9357;49.900;8.208;2022-12-29T02:44:14;1.47;;;1.33;;
18455;SDS011;9357;49.900;8.208;2022-12-29T02:45:53;1.30;;;1.20;;
18455;SDS011;9357;49.900;8.208;2022-12-29T02:47:34;1.97;;;1.40;;
18455;SDS011;9357;49.900;8.208;2022-12-29T02:49:09;1.70;;;1.30;;
18455;SDS011;9357;49.900;8.208;2022-12-29T02:50:47;2.40;;;1.37;;
18455;SDS011;9357;49.900;8.208;2022-12-29T02:52:25;1.37;;;1.20;;
18455;SDS011;9357;49.900;8.208;2022-12-29T02:54:03;1.90;;;1.30;;
18455;SDS011;9357;49.900;8.208;2022-12-29T02:55:53;1.57;;;1.47;;
18455;SDS011;9357;49.900;8.208;2022-12-29T02:57:29;1.73;;;1.60;;
18455;SDS011;9357;49.900;8.208;2022-12-29T02:59:04;1.97;;;1.60;;
18455;SDS011;9357;49.900;8.208;2022-12-29T03:00:39;2.93;;;1.73;;
18455;SDS011;9357;49.900;8.208;2022-12-29T03:02:29;2.33;;;1.50;;
18455;SDS011;9357;49.900;8.208;2022-12-29T03:04:35;3.37;;;1.50;;
18455;SDS011;9357;49.900;8.208;2022-12-29T03:06:15;2.43;;;1.67;;
18455;SDS011;9357;49.900;8.208;2022-12-29T03:08:00;1.73;;;1.63;;
18455;SDS011;9357;49.900;8.208;2022-12-29T03:09:40;1.50;;;1.40;;
18455;SDS011;9357;49.900;8.208;2022-12-29T03:11:19;1.83;;;1.60;;
18455;SDS011;9357;49.900;8.208;2022-12-29T03:13:13;2.20;;;1.70;;
18455;SDS011;9357;49.900;8.208;2022-12-29T03:15:11;1.60;;;1.43;;
18455;SDS011;9357;49.900;8.208;2022-12-29T03:17:07;1.73;;;1.50;;
18455;SDS011;9357;49.900;8.208;2022-12-29T03:18:45;4.43;;;1.70;;
18455;SDS011;9357;49.900;8.208;2022-12-29T03:20:24;2.37;;;1.73;;
18455;SDS011;9357;49.900;8.208;2022-12-29T03:22:04;2.47;;;1.90;;
18455;SDS011;9357;49.900;8.208;2022-12-29T03:23:56;3.47;;;1.90;;
18455;SDS011;9357;49.900;8.208;2022-12-29T03:25:30;4.67;;;1.77;;
18455;SDS011;9357;49.900;8.208;2022-12-29T03:27:05;3.77;;;1.87;;
18455;SDS011;9357;49.900;8.208;2022-12-29T03:28:41;2.80;;;1.83;;
18455;SDS011;9357;49.900;8.208;2022-12-29T03:30:19;2.00;;;1.70;;
18455;SDS011;9357;49.900;8.208;2022-12-29T03:31:51;2.53;;;2.07;;
18455;SDS011;9357;49.900;8.208;2022-12-29T03:33:27;2.47;;;1.70;;
18455;SDS011;9357;49.900;8.208;2022-12-29T03:35:03;2.10;;;1.63;;
18455;SDS011;9357;49.900;8.208;2022-12-29T03:36:38;3.00;;;1.75;;
18455;SDS011;9357;49.900;8.208;2022-12-29T03:38:16;2.77;;;1.80;;
18455;SDS011;9357;49.900;8.208;2022-12-29T03:39:51;2.30;;;1.83;;
18455;SDS011;9357;49.900;8.208;2022-12-29T03:41:26;2.23;;;1.73;;
18455;SDS011;9357;49.900;8.208;2022-12-29T03:43:02;2.60;;;1.73;;
18455;SDS011;9357;49.900;8.208;2022-12-29T03:44:36;3.47;;;1.90;;
18455;SDS011;9357;49.900;8.208;2022-12-29T03:46:11;2.00;;;1.80;;
18455;SDS011;9357;49.900;8.208;2022-12-29T03:47:43;3.93;;;1.60;;
18455;SDS011;9357;49.900;8.208;2022-12-29T03:49:16;1.93;;;1.70;;
18455;SDS011;9357;49.900;8.208;2022-12-29T03:50:50;3.33;;;1.70;;
18455;SDS011;9357;49.900;8.208;2022-12-29T03:52:22;4.57;;;2.00;;
18455;SDS011;9357;49.900;8.208;2022-12-29T03:53:55;2.47;;;1.50;;
18455;SDS011;9357;49.900;8.208;2022-12-29T03:55:28;2.47;;;1.73;;
18455;SDS011;9357;49.900;8.208;2022-12-29T03:57:01;2.37;;;1.83;;
18455;SDS011;9357;49.900;8.208;2022-12-29T03:58:34;1.63;;;1.53;;
18455;SDS011;9357;49.900;8.208;2022-12-29T04:00:07;2.93;;;1.90;;
18455;SDS011;9357;49.900;8.208;2022-12-29T04:01:41;3.40;;;1.70;;
18455;SDS011;9357;49.900;8.208;2022-12-29T04:03:13;1.93;;;1.70;;
18455;SDS011;9357;49.900;8.208;2022-12-29T04:04:48;2.80;;;1.60;;
18455;SDS011;9357;49.900;8.208;2022-12-29T04:06:22;2.20;;;2.00;;
18455;SDS011;9357;49.900;8.208;2022-12-29T04:07:55;3.00;;;1.90;;
18455;SDS011;9357;49.900;8.208;2022-12-29T04:09:28;2.70;;;1.87;;
18455;SDS011;9357;49.900;8.208;2022-12-29T04:11:02;1.80;;;1.70;;
18455;SDS011;9357;49.900;8.208;2022-12-29T04:12:35;4.33;;;1.80;;
18455;SDS011;9357;49.900;8.208;2022-12-29T04:14:08;4.53;;;2.10;;
18455;SDS011;9357;49.900;8.208;2022-12-29T04:15:40;2.30;;;1.80;;
18455;SDS011;9357;49.900;8.208;2022-12-29T04:17:13;1.80;;;1.63;;
18455;SDS011;9357;49.900;8.208;2022-12-29T04:18:48;2.73;;;2.13;;
18455;SDS011;9357;49.900;8.208;2022-12-29T04:20:21;3.27;;;1.90;;
18455;SDS011;9357;49.900;8.208;2022-12-29T04:22:12;2.27;;;1.70;;
18455;SDS011;9357;49.900;8.208;2022-12-29T04:23:45;2.67;;;1.80;;
18455;SDS011;9357;49.900;8.208;2022-12-29T04:25:17;3.10;;;2.07;;
18455;SDS011;9357;49.900;8.208;2022-12-29T04:26:49;2.23;;;1.77;;
18455;SDS011;9357;49.900;8.208;2022-12-29T04:28:22;2.93;;;2.10;;
18455;SDS011;9357;49.900;8.208;2022-12-29T04:29:54;3.47;;;1.87;;
18455;SDS011;9357;49.900;8.208;2022-12-29T04:31:27;2.57;;;1.83;;
18455;SDS011;9357;49.900;8.208;2022-12-29T04:33:00;2.27;;;1.63;;
18455;SDS011;9357;49.900;8.208;2022-12-29T04:34:32;2.97;;;1.70;;
18455;SDS011;9357;49.900;8.208;2022-12-29T04:36:04;2.87;;;1.80;;
18455;SDS011;9357;49.900;8.208;2022-12-29T04:37:39;2.13;;;1.60;;
18455;SDS011;9357;49.900;8.208;2022-12-29T04:39:11;2.00;;;1.80;;
18455;SDS011;9357;49.900;8.208;2022-12-29T04:40:44;1.80;;;1.70;;
18455;SDS011;9357;49.900;8.208;2022-12-29T04:42:17;3.40;;;1.80;;
18455;SDS011;9357;49.900;8.208;2022-12-29T04:43:50;3.57;;;1.90;;
18455;SDS011;9357;49.900;8.208;2022-12-29T04:45:23;2.30;;;1.93;;
18455;SDS011;9357;49.900;8.208;2022-12-29T04:46:56;4.60;;;1.90;;
18455;SDS011;9357;49.900;8.208;2022-12-29T04:48:28;2.37;;;1.70;;
18455;SDS011;9357;49.900;8.208;2022-12-29T04:50:02;4.33;;;1.80;;
18455;SDS011;9357;49.900;8.208;2022-12-29T04:51:35;2.80;;;1.70;;
18455;SDS011;9357;49.900;8.208;2022-12-29T04:53:09;2.27;;;1.97;;
18455;SDS011;9357;49.900;8.208;2022-12-29T04:54:41;2.23;;;1.60;;
18455;SDS011;9357;49.900;8.208;2022-12-29T04:56:13;3.33;;;1.80;;
18455;SDS011;9357;49.900;8.208;2022-12-29T04:57:46;2.93;;;1.80;;
18455;SDS011;9357;49.900;8.208;2022-12-29T04:59:19;2.13;;;1.87;;
18455;SDS011;9357;49.900;8.208;2022-12-29T05:00:52;2.23;;;1.93;;
18455;SDS011;9357;49.900;8.208;2022-12-29T05:02:24;3.33;;;1.77;;
18455;SDS011;9357;49.900;8.208;2022-12-29T05:03:57;1.80;;;1.60;;
18455;SDS011;9357;49.900;8.208;2022-12-29T05:05:30;2.90;;;1.80;;
18455;SDS011;9357;49.900;8.208;2022-12-29T05:07:02;2.20;;;1.50;;
18455;SDS011;9357;49.900;8.208;2022-12-29T05:08:36;2.50;;;1.80;;
18455;SDS011;9357;49.900;8.208;2022-12-29T05:10:09;2.50;;;1.80;;
18455;SDS011;9357;49.900;8.208;2022-12-29T05:11:41;2.57;;;1.60;;
18455;SDS011;9357;49.900;8.208;2022-12-29T05:13:14;2.47;;;1.70;;
18455;SDS011;9357;49.900;8.208;2022-12-29T05:14:48;3.30;;;2.00;;
18455;SDS011;9357;49.900;8.208;2022-12-29T05:16:21;3.27;;;1.80;;
18455;SDS011;9357;49.900;8.208;2022-12-29T05:17:54;4.30;;;1.87;;
18455;SDS011;9357;49.900;8.208;2022-12-29T05:19:27;3.30;;;1.70;;
18455;SDS011;9357;49.900;8.208;2022-12-29T05:20:59;2.13;;;1.80;;
18455;SDS011;9357;49.900;8.208;2022-12-29T05:22:32;3.10;;;1.90;;
18455;SDS011;9357;49.900;8.208;2022-12-29T05:24:06;2.33;;;2.00;;
18455;SDS011;9357;49.900;8.208;2022-12-29T05:25:39;2.97;;;1.57;;
18455;SDS011;9357;49.900;8.208;2022-12-29T05:27:12;2.53;;;1.50;;
18455;SDS011;9357;49.900;8.208;2022-12-29T05:28:45;1.63;;;1.53;;
18455;SDS011;9357;49.900;8.208;2022-12-29T05:30:18;1.93;;;1.53;;
18455;SDS011;9357;49.900;8.208;2022-12-29T05:31:51;3.67;;;1.97;;
18455;SDS011;9357;49.900;8.208;2022-12-29T05:33:23;3.23;;;1.90;;
18455;SDS011;9357;49.900;8.208;2022-12-29T05:34:56;1.87;;;1.73;;
18455;SDS011;9357;49.900;8.208;2022-12-29T05:36:30;4.00;;;2.00;;
18455;SDS011;9357;49.900;8.208;2022-12-29T05:38:08;2.77;;;1.73;;
18455;SDS011;9357;49.900;8.208;2022-12-29T05:39:42;2.50;;;1.80;;
18455;SDS011;9357;49.900;8.208;2022-12-29T05:41:14;4.43;;;1.70;;
18455;SDS011;9357;49.900;8.208;2022-12-29T05:42:46;1.73;;;1.60;;
18455;SDS011;9357;49.900;8.208;2022-12-29T05:44:19;1.87;;;1.50;;
18455;SDS011;9357;49.900;8.208;2022-12-29T05:45:51;2.70;;;1.63;;
18455;SDS011;9357;49.900;8.208;2022-12-29T05:47:25;2.93;;;1.60;;
18455;SDS011;9357;49.900;8.208;2022-12-29T05:48:58;1.70;;;1.60;;
18455;SDS011;9357;49.900;8.208;2022-12-29T05:50:30;3.77;;;1.57;;
18455;SDS011;9357;49.900;8.208;2022-12-29T05:52:03;3.23;;;1.80;;
18455;SDS011;9357;49.900;8.208;2022-12-29T05:53:36;1.87;;;1.57;;
18455;SDS011;9357;49.900;8.208;2022-12-29T05:55:10;3.53;;;1.60;;
18455;SDS011;9357;49.900;8.208;2022-12-29T05:56:44;2.50;;;1.70;;
18455;SDS011;9357;49.900;8.208;2022-12-29T05:58:17;1.77;;;1.67;;
18455;SDS011;9357;49.900;8.208;2022-12-29T05:59:49;2.00;;;1.37;;
18455;SDS011;9357;49.900;8.208;2022-12-29T06:01:22;2.70;;;1.53;;
18455;SDS011;9357;49.900;8.208;2022-12-29T06:02:54;1.90;;;1.40;;
18455;SDS011;9357;49.900;8.208;2022-12-29T06:04:26;3.03;;;1.60;;
18455;SDS011;9357;49.900;8.208;2022-12-29T06:05:59;1.83;;;1.60;;
18455;SDS011;9357;49.900;8.208;2022-12-29T06:07:32;2.33;;;1.63;;
18455;SDS011;9357;49.900;8.208;2022-12-29T06:09:04;1.90;;;1.57;;
18455;SDS011;9357;49.900;8.208;2022-12-29T06:10:38;2.60;;;1.73;;
18455;SDS011;9357;49.900;8.208;2022-12-29T06:12:11;2.47;;;1.70;;
18455;SDS011;9357;49.900;8.208;2022-12-29T06:13:44;1.83;;;1.60;;
18455;SDS011;9357;49.900;8.208;2022-12-29T06:15:17;2.60;;;1.80;;
18455;SDS011;9357;49.900;8.208;2022-12-29T06:16:49;2.30;;;1.50;;
18455;SDS011;9357;49.900;8.208;2022-12-29T06:18:22;2.37;;;1.67;;
18455;SDS011;9357;49.900;8.208;2022-12-29T06:19:55;3.07;;;1.50;;
18455;SDS011;9357;49.900;8.208;2022-12-29T06:21:28;3.93;;;1.70;;
18455;SDS011;9357;49.900;8.208;2022-12-29T06:23:00;2.20;;;1.60;;
18455;SDS011;9357;49.900;8.208;2022-12-29T06:24:33;2.77;;;1.63;;
18455;SDS011;9357;49.900;8.208;2022-12-29T06:26:07;2.20;;;1.90;;
18455;SDS011;9357;49.900;8.208;2022-12-29T06:27:40;3.97;;;1.70;;
18455;SDS011;9357;49.900;8.208;2022-12-29T06:29:13;2.40;;;1.40;;
18455;SDS011;9357;49.900;8.208;2022-12-29T06:30:48;2.90;;;1.77;;
18455;SDS011;9357;49.900;8.208;2022-12-29T06:32:20;2.03;;;1.50;;
18455;SDS011;9357;49.900;8.208;2022-12-29T06:33:52;1.80;;;1.67;;
18455;SDS011;9357;49.900;8.208;2022-12-29T06:35:25;2.30;;;1.77;;
18455;SDS011;9357;49.900;8.208;2022-12-29T06:36:58;2.27;;;1.80;;
18455;SDS011;9357;49.900;8.208;2022-12-29T06:38:31;2.23;;;1.60;;
18455;SDS011;9357;49.900;8.208;2022-12-29T06:40:04;2.67;;;1.60;;
18455;SDS011;9357;49.900;8.208;2022-12-29T06:41:39;2.97;;;1.90;;
18455;SDS011;9357;49.900;8.208;2022-12-29T06:43:12;2.77;;;1.70;;
18455;SDS011;9357;49.900;8.208;2022-12-29T06:44:44;4.60;;;1.90;;
18455;SDS011;9357;49.900;8.208;2022-12-29T06:46:17;2.20;;;1.70;;
18455;SDS011;9357;49.900;8.208;2022-12-29T06:47:49;2.40;;;1.77;;
18455;SDS011;9357;49.900;8.208;2022-12-29T06:49:22;4.07;;;2.00;;
18455;SDS011;9357;49.900;8.208;2022-12-29T06:50:54;3.60;;;1.87;;
18455;SDS011;9357;49.900;8.208;2022-12-29T06:52:27;2.60;;;1.90;;
18455;SDS011;9357;49.900;8.208;2022-12-29T06:54:00;2.27;;;2.07;;
18455;SDS011;9357;49.900;8.208;2022-12-29T06:55:33;3.87;;;2.10;;
18455;SDS011;9357;49.900;8.208;2022-12-29T06:57:07;2.33;;;2.03;;
18455;SDS011;9357;49.900;8.208;2022-12-29T06:58:39;2.07;;;1.93;;
18455;SDS011;9357;49.900;8.208;2022-12-29T07:00:13;3.03;;;2.07;;
18455;SDS011;9357;49.900;8.208;2022-12-29T07:01:53;5.50;;;2.20;;
18455;SDS011;9357;49.900;8.208;2022-12-29T07:03:26;3.47;;;2.10;;
18455;SDS011;9357;49.900;8.208;2022-12-29T07:04:58;3.87;;;2.17;;
18455;SDS011;9357;49.900;8.208;2022-12-29T07:06:30;4.40;;;2.30;;
18455;SDS011;9357;49.900;8.208;2022-12-29T07:08:03;4.37;;;2.10;;
18455;SDS011;9357;49.900;8.208;2022-12-29T07:09:37;3.23;;;2.00;;
18455;SDS011;9357;49.900;8.208;2022-12-29T07:11:09;4.50;;;2.20;;
18455;SDS011;9357;49.900;8.208;2022-12-29T07:12:43;3.40;;;2.30;;
18455;SDS011;9357;49.900;8.208;2022-12-29T07:14:16;2.80;;;2.10;;
18455;SDS011;9357;49.900;8.208;2022-12-29T07:15:49;4.00;;;2.20;;
18455;SDS011;9357;49.900;8.208;2022-12-29T07:17:22;3.37;;;2.10;;
18455;SDS011;9357;49.900;8.208;2022-12-29T07:18:54;4.63;;;2.10;;
18455;SDS011;9357;49.900;8.208;2022-12-29T07:20:28;4.73;;;2.20;;
18455;SDS011;9357;49.900;8.208;2022-12-29T07:22:00;2.93;;;2.10;;
18455;SDS011;9357;49.900;8.208;2022-12-29T07:23:33;3.10;;;2.03;;
18455;SDS011;9357;49.900;8.208;2022-12-29T07:25:06;3.03;;;2.20;;
18455;SDS011;9357;49.900;8.208;2022-12-29T07:26:39;4.93;;;2.30;;
18455;SDS011;9357;49.900;8.208;2022-12-29T07:28:14;2.60;;;2.40;;
18455;SDS011;9357;49.900;8.208;2022-12-29T07:29:47;6.30;;;2.33;;
18455;SDS011;9357;49.900;8.208;2022-12-29T07:31:20;3.70;;;2.33;;
18455;SDS011;9357;49.900;8.208;2022-12-29T07:32:54;2.83;;;2.33;;
18455;SDS011;9357;49.900;8.208;2022-12-29T07:34:27;3.93;;;2.70;;
18455;SDS011;9357;49.900;8.208;2022-12-29T07:36:00;2.83;;;2.13;;
18455;SDS011;9357;49.900;8.208;2022-12-29T07:37:33;4.10;;;2.10;;
18455;SDS011;9357;49.900;8.208;2022-12-29T07:39:06;3.83;;;2.33;;
18455;SDS011;9357;49.900;8.208;2022-12-29T07:40:39;3.13;;;2.60;;
18455;SDS011;9357;49.900;8.208;2022-12-29T07:42:11;4.53;;;2.70;;
18455;SDS011;9357;49.900;8.208;2022-12-29T07:43:47;4.10;;;2.17;;
18455;SDS011;9357;49.900;8.208;2022-12-29T07:45:20;3.37;;;2.40;;
18455;SDS011;9357;49.900;8.208;2022-12-29T07:46:53;5.10;;;2.27;;
18455;SDS011;9357;49.900;8.208;2022-12-29T07:48:28;5.37;;;2.67;;
18455;SDS011;9357;49.900;8.208;2022-12-29T07:50:00;4.63;;;2.30;;
18455;SDS011;9357;49.900;8.208;2022-12-29T07:51:33;2.57;;;2.30;;
18455;SDS011;9357;49.900;8.208;2022-12-29T07:53:06;3.47;;;2.60;;
18455;SDS011;9357;49.900;8.208;2022-12-29T07:54:39;5.47;;;2.60;;
18455;SDS011;9357;49.900;8.208;2022-12-29T07:56:11;4.70;;;2.37;;
18455;SDS011;9357;49.900;8.208;2022-12-29T07:57:44;3.83;;;2.60;;
18455;SDS011;9357;49.900;8.208;2022-12-29T07:59:18;4.40;;;2.37;;
18455;SDS011;9357;49.900;8.208;2022-12-29T08:00:52;5.03;;;2.50;;
18455;SDS011;9357;49.900;8.208;2022-12-29T08:02:25;3.87;;;2.60;;
18455;SDS011;9357;49.900;8.208;2022-12-29T08:03:59;5.83;;;2.80;;
18455;SDS011;9357;49.900;8.208;2022-12-29T08:05:32;3.00;;;2.70;;
18455;SDS011;9357;49.900;8.208;2022-12-29T08:07:06;3.40;;;2.50;;
18455;SDS011;9357;49.900;8.208;2022-12-29T08:08:38;3.30;;;2.57;;
18455;SDS011;9357;49.900;8.208;2022-12-29T08:10:12;7.40;;;2.73;;
18455;SDS011;9357;49.900;8.208;2022-12-29T08:11:45;4.13;;;2.33;;
18455;SDS011;9357;49.900;8.208;2022-12-29T08:13:18;4.23;;;2.80;;
18455;SDS011;9357;49.900;8.208;2022-12-29T08:14:52;3.80;;;2.97;;
18455;SDS011;9357;49.900;8.208;2022-12-29T08:16:25;4.07;;;2.67;;
18455;SDS011;9357;49.900;8.208;2022-12-29T08:17:57;4.13;;;2.60;;
18455;SDS011;9357;49.900;8.208;2022-12-29T08:19:30;3.17;;;2.70;;
18455;SDS011;9357;49.900;8.208;2022-12-29T08:21:03;4.37;;;2.60;;
18455;SDS011;9357;49.900;8.208;2022-12-29T08:22:37;4.23;;;2.23;;
18455;SDS011;9357;49.900;8.208;2022-12-29T08:24:09;3.33;;;2.47;;
18455;SDS011;9357;49.900;8.208;2022-12-29T08:25:42;4.57;;;2.47;;
18455;SDS011;9357;49.900;8.208;2022-12-29T08:27:15;3.00;;;2.77;;
18455;SDS011;9357;49.900;8.208;2022-12-29T08:28:51;4.67;;;2.50;;
18455;SDS011;9357;49.900;8.208;2022-12-29T08:30:26;3.00;;;2.40;;
18455;SDS011;9357;49.900;8.208;2022-12-29T08:31:59;2.87;;;2.37;;
18455;SDS011;9357;49.900;8.208;2022-12-29T08:33:32;3.30;;;2.53;;
18455;SDS011;9357;49.900;8.208;2022-12-29T08:35:05;5.37;;;2.60;;
18455;SDS011;9357;49.900;8.208;2022-12-29T08:36:38;3.83;;;2.90;;
18455;SDS011;9357;49.900;8.208;2022-12-29T08:38:11;3.77;;;2.57;;
18455;SDS011;9357;49.900;8.208;2022-12-29T08:39:44;5.80;;;2.97;;
18455;SDS011;9357;49.900;8.208;2022-12-29T08:41:17;5.07;;;2.33;;
18455;SDS011;9357;49.900;8.208;2022-12-29T08:42:49;6.37;;;2.60;;
18455;SDS011;9357;49.900;8.208;2022-12-29T08:44:22;3.50;;;2.57;;
18455;SDS011;9357;49.900;8.208;2022-12-29T08:45:58;3.53;;;2.50;;
18455;SDS011;9357;49.900;8.208;2022-12-29T08:47:31;3.63;;;2.50;;
18455;SDS011;9357;49.900;8.208;2022-12-29T08:49:04;6.70;;;2.50;;
18455;SDS011;9357;49.900;8.208;2022-12-29T08:50:36;4.83;;;2.80;;
18455;SDS011;9357;49.900;8.208;2022-12-29T08:52:09;3.63;;;2.50;;
18455;SDS011;9357;49.900;8.208;2022-12-29T08:53:42;3.30;;;2.53;;
18455;SDS011;9357;49.900;8.208;2022-12-29T08:55:15;3.87;;;2.60;;
18455;SDS011;9357;49.900;8.208;2022-12-29T08:56:48;4.17;;;2.70;;
18455;SDS011;9357;49.900;8.208;2022-12-29T08:58:21;4.90;;;2.90;;
18455;SDS011;9357;49.900;8.208;2022-12-29T08:59:54;4.53;;;2.80;;
18455;SDS011;9357;49.900;8.208;2022-12-29T09:01:28;4.50;;;2.87;;
18455;SDS011;9357;49.900;8.208;2022-12-29T09:03:01;5.53;;;2.93;;
18455;SDS011;9357;49.900;8.208;2022-12-29T09:04:34;4.60;;;2.70;;
18455;SDS011;9357;49.900;8.208;2022-12-29T09:06:07;4.80;;;2.90;;
18455;SDS011;9357;49.900;8.208;2022-12-29T09:07:40;3.43;;;2.50;;
18455;SDS011;9357;49.900;8.208;2022-12-29T09:09:12;4.93;;;2.87;;
18455;SDS011;9357;49.900;8.208;2022-12-29T09:10:45;3.53;;;2.40;;
18455;SDS011;9357;49.900;8.208;2022-12-29T09:12:19;3.57;;;2.83;;
18455;SDS011;9357;49.900;8.208;2022-12-29T09:13:51;8.97;;;2.90;;
18455;SDS011;9357;49.900;8.208;2022-12-29T09:15:24;3.90;;;2.80;;
18455;SDS011;9357;49.900;8.208;2022-12-29T09:16:58;3.97;;;3.00;;
18455;SDS011;9357;49.900;8.208;2022-12-29T09:18:49;4.73;;;2.70;;
18455;SDS011;9357;49.900;8.208;2022-12-29T09:20:22;8.33;;;3.03;;
18455;SDS011;9357;49.900;8.208;2022-12-29T09:21:55;4.93;;;2.83;;
18455;SDS011;9357;49.900;8.208;2022-12-29T09:23:28;6.63;;;3.03;;
18455;SDS011;9357;49.900;8.208;2022-12-29T09:25:00;5.10;;;2.83;;
18455;SDS011;9357;49.900;8.208;2022-12-29T09:26:33;5.53;;;2.90;;
18455;SDS011;9357;49.900;8.208;2022-12-29T09:28:06;4.70;;;2.70;;
18455;SDS011;9357;49.900;8.208;2022-12-29T09:29:38;5.30;;;3.07;;
18455;SDS011;9357;49.900;8.208;2022-12-29T09:31:11;3.70;;;2.80;;
18455;SDS011;9357;49.900;8.208;2022-12-29T09:32:45;5.10;;;3.20;;
18455;SDS011;9357;49.900;8.208;2022-12-29T09:34:25;4.67;;;3.00;;
18455;SDS011;9357;49.900;8.208;2022-12-29T09:35:58;4.93;;;2.77;;
18455;SDS011;9357;49.900;8.208;2022-12-29T09:37:31;5.17;;;3.40;;
18455;SDS011;9357;49.900;8.208;2022-12-29T09:39:03;5.77;;;3.20;;
18455;SDS011;9357;49.900;8.208;2022-12-29T09:40:37;5.97;;;3.40;;
18455;SDS011;9357;49.900;8.208;2022-12-29T09:42:13;4.97;;;3.63;;
18455;SDS011;9357;49.900;8.208;2022-12-29T09:43:57;6.23;;;3.70;;
18455;SDS011;9357;49.900;8.208;2022-12-29T09:45:40;4.37;;;3.40;;